sensor_id;sensor_type;location;lat;lon;timestamp;P1;durP1;ratioP1;P2;durP2;ratioP2
67930;SDS011;63902;52.000;5.954;2023-02-15T00:00:25;36.33;;;17.63;;
67930;SDS011;63902;52.000;5.954;2023-02-15T00:01:25;30.45;;;17.50;;
67930;SDS011;63902;52.000;5.954;2023-02-15T00:02:26;30.30;;;16.38;;
67930;SDS011;63902;52.000;5.954;2023-02-15T00:03:26;32.47;;;17.70;;
67930;SDS011;63902;52.000;5.954;2023-02-15T00:04:27;36.08;;;18.13;;
67930;SDS011;63902;52.000;5.954;2023-02-15T00:05:27;33.10;;;17.02;;
67930;SDS011;63902;52.000;5.954;2023-02-15T00:06:30;36.47;;;18.55;;
67930;SDS011;63902;52.000;5.954;2023-02-15T00:07:31;37.58;;;18.30;;
67930;SDS011;63902;52.000;5.954;2023-02-15T00:08:33;32.22;;;18.20;;
67930;SDS011;63902;52.000;5.954;2023-02-15T00:09:34;32.63;;;17.55;;
67930;SDS011;63902;52.000;5.954;2023-02-15T00:10:34;29.60;;;18.45;;
67930;SDS011;63902;52.000;5.954;2023-02-15T00:11:34;30.90;;;18.15;;
67930;SDS011;63902;52.000;5.954;2023-02-15T00:12:35;29.05;;;16.98;;
67930;SDS011;63902;52.000;5.954;2023-02-15T00:13:36;30.63;;;17.40;;
67930;SDS011;63902;52.000;5.954;2023-02-15T00:14:36;32.50;;;18.83;;
67930;SDS011;63902;52.000;5.954;2023-02-15T00:15:37;33.95;;;18.27;;
67930;SDS011;63902;52.000;5.954;2023-02-15T00:16:37;34.17;;;18.00;;
67930;SDS011;63902;52.000;5.954;2023-02-15T00:17:39;35.00;;;18.52;;
67930;SDS011;63902;52.000;5.954;2023-02-15T00:18:39;29.15;;;17.33;;
67930;SDS011;63902;52.000;5.954;2023-02-15T00:19:40;32.40;;;17.23;;
67930;SDS011;63902;52.000;5.954;2023-02-15T00:20:40;32.42;;;18.13;;
67930;SDS011;63902;52.000;5.954;2023-02-15T00:21:41;35.30;;;18.20;;
67930;SDS011;63902;52.000;5.954;2023-02-15T00:22:42;31.15;;;17.52;;
67930;SDS011;63902;52.000;5.954;2023-02-15T00:23:43;25.75;;;16.17;;
67930;SDS011;63902;52.000;5.954;2023-02-15T00:24:44;28.70;;;16.92;;
67930;SDS011;63902;52.000;5.954;2023-02-15T00:25:44;34.47;;;17.73;;
67930;SDS011;63902;52.000;5.954;2023-02-15T00:26:45;33.03;;;17.88;;
67930;SDS011;63902;52.000;5.954;2023-02-15T00:27:46;31.05;;;17.00;;
67930;SDS011;63902;52.000;5.954;2023-02-15T00:28:47;30.80;;;17.20;;
67930;SDS011;63902;52.000;5.954;2023-02-15T00:29:47;31.73;;;16.70;;
67930;SDS011;63902;52.000;5.954;2023-02-15T00:30:48;32.85;;;18.17;;
67930;SDS011;63902;52.000;5.954;2023-02-15T00:31:48;28.48;;;17.40;;
67930;SDS011;63902;52.000;5.954;2023-02-15T00:32:49;30.30;;;16.55;;
67930;SDS011;63902;52.000;5.954;2023-02-15T00:33:49;33.60;;;19.00;;
67930;SDS011;63902;52.000;5.954;2023-02-15T00:34:49;27.13;;;16.77;;
67930;SDS011;63902;52.000;5.954;2023-02-15T00:35:55;31.20;;;17.85;;
67930;SDS011;63902;52.000;5.954;2023-02-15T00:36:56;30.30;;;17.27;;
67930;SDS011;63902;52.000;5.954;2023-02-15T00:37:57;31.95;;;17.25;;
67930;SDS011;63902;52.000;5.954;2023-02-15T00:38:59;30.98;;;16.98;;
67930;SDS011;63902;52.000;5.954;2023-02-15T00:39:59;29.83;;;17.33;;
67930;SDS011;63902;52.000;5.954;2023-02-15T00:41:00;34.85;;;19.00;;
67930;SDS011;63902;52.000;5.954;2023-02-15T00:42:02;27.30;;;16.08;;
67930;SDS011;63902;52.000;5.954;2023-02-15T00:43:02;31.48;;;16.42;;
67930;SDS011;63902;52.000;5.954;2023-02-15T00:44:03;29.83;;;17.25;;
67930;SDS011;63902;52.000;5.954;2023-02-15T00:45:04;30.63;;;16.73;;
67930;SDS011;63902;52.000;5.954;2023-02-15T00:46:05;32.58;;;18.25;;
67930;SDS011;63902;52.000;5.954;2023-02-15T00:47:06;29.52;;;16.38;;
67930;SDS011;63902;52.000;5.954;2023-02-15T00:48:06;29.27;;;17.17;;
67930;SDS011;63902;52.000;5.954;2023-02-15T00:49:07;27.90;;;17.15;;
67930;SDS011;63902;52.000;5.954;2023-02-15T00:50:08;28.20;;;17.33;;
67930;SDS011;63902;52.000;5.954;2023-02-15T00:51:08;28.95;;;17.38;;
67930;SDS011;63902;52.000;5.954;2023-02-15T00:52:09;36.03;;;18.73;;
67930;SDS011;63902;52.000;5.954;2023-02-15T00:53:09;36.55;;;17.67;;
67930;SDS011;63902;52.000;5.954;2023-02-15T00:54:11;35.58;;;18.13;;
67930;SDS011;63902;52.000;5.954;2023-02-15T00:55:12;28.30;;;17.23;;
67930;SDS011;63902;52.000;5.954;2023-02-15T00:56:12;29.02;;;17.13;;
67930;SDS011;63902;52.000;5.954;2023-02-15T00:57:13;32.90;;;18.85;;
67930;SDS011;63902;52.000;5.954;2023-02-15T00:58:13;29.10;;;16.33;;
67930;SDS011;63902;52.000;5.954;2023-02-15T00:59:14;27.50;;;15.48;;
67930;SDS011;63902;52.000;5.954;2023-02-15T01:00:15;35.08;;;16.60;;
67930;SDS011;63902;52.000;5.954;2023-02-15T01:01:16;27.80;;;16.92;;
67930;SDS011;63902;52.000;5.954;2023-02-15T01:02:18;26.88;;;15.88;;
67930;SDS011;63902;52.000;5.954;2023-02-15T01:03:19;29.40;;;18.15;;
67930;SDS011;63902;52.000;5.954;2023-02-15T01:04:20;31.15;;;16.80;;
67930;SDS011;63902;52.000;5.954;2023-02-15T01:05:21;28.38;;;16.15;;
67930;SDS011;63902;52.000;5.954;2023-02-15T01:06:21;29.60;;;17.02;;
67930;SDS011;63902;52.000;5.954;2023-02-15T01:07:22;31.15;;;17.25;;
67930;SDS011;63902;52.000;5.954;2023-02-15T01:08:22;27.55;;;16.58;;
67930;SDS011;63902;52.000;5.954;2023-02-15T01:09:24;28.30;;;15.93;;
67930;SDS011;63902;52.000;5.954;2023-02-15T01:10:25;29.17;;;17.05;;
67930;SDS011;63902;52.000;5.954;2023-02-15T01:11:26;35.83;;;16.63;;
67930;SDS011;63902;52.000;5.954;2023-02-15T01:12:26;32.28;;;16.55;;
67930;SDS011;63902;52.000;5.954;2023-02-15T01:13:27;26.90;;;16.05;;
67930;SDS011;63902;52.000;5.954;2023-02-15T01:14:27;29.55;;;17.15;;
67930;SDS011;63902;52.000;5.954;2023-02-15T01:15:28;34.83;;;17.67;;
67930;SDS011;63902;52.000;5.954;2023-02-15T01:16:28;32.28;;;16.67;;
67930;SDS011;63902;52.000;5.954;2023-02-15T01:17:29;33.53;;;17.33;;
67930;SDS011;63902;52.000;5.954;2023-02-15T01:18:31;26.83;;;15.63;;
67930;SDS011;63902;52.000;5.954;2023-02-15T01:19:32;30.10;;;17.05;;
67930;SDS011;63902;52.000;5.954;2023-02-15T01:20:34;30.40;;;16.17;;
67930;SDS011;63902;52.000;5.954;2023-02-15T01:21:35;26.58;;;16.13;;
67930;SDS011;63902;52.000;5.954;2023-02-15T01:22:36;31.48;;;17.23;;
67930;SDS011;63902;52.000;5.954;2023-02-15T01:23:36;27.08;;;16.27;;
67930;SDS011;63902;52.000;5.954;2023-02-15T01:24:38;34.45;;;17.38;;
67930;SDS011;63902;52.000;5.954;2023-02-15T01:25:38;34.10;;;16.83;;
67930;SDS011;63902;52.000;5.954;2023-02-15T01:26:39;24.67;;;15.98;;
67930;SDS011;63902;52.000;5.954;2023-02-15T01:27:39;26.52;;;15.27;;
67930;SDS011;63902;52.000;5.954;2023-02-15T01:28:40;28.70;;;16.13;;
67930;SDS011;63902;52.000;5.954;2023-02-15T01:29:40;31.75;;;17.35;;
67930;SDS011;63902;52.000;5.954;2023-02-15T01:30:41;33.25;;;17.00;;
67930;SDS011;63902;52.000;5.954;2023-02-15T01:31:41;32.55;;;17.25;;
67930;SDS011;63902;52.000;5.954;2023-02-15T01:32:42;27.83;;;15.88;;
67930;SDS011;63902;52.000;5.954;2023-02-15T01:33:43;26.48;;;15.50;;
67930;SDS011;63902;52.000;5.954;2023-02-15T01:34:43;29.40;;;16.23;;
67930;SDS011;63902;52.000;5.954;2023-02-15T01:35:44;33.30;;;17.00;;
67930;SDS011;63902;52.000;5.954;2023-02-15T01:36:45;29.23;;;16.58;;
67930;SDS011;63902;52.000;5.954;2023-02-15T01:37:45;30.30;;;16.88;;
67930;SDS011;63902;52.000;5.954;2023-02-15T01:38:46;27.27;;;16.23;;
67930;SDS011;63902;52.000;5.954;2023-02-15T01:39:48;33.20;;;16.92;;
67930;SDS011;63902;52.000;5.954;2023-02-15T01:40:50;24.77;;;15.20;;
67930;SDS011;63902;52.000;5.954;2023-02-15T01:41:50;23.10;;;15.23;;
67930;SDS011;63902;52.000;5.954;2023-02-15T01:42:51;27.70;;;16.15;;
67930;SDS011;63902;52.000;5.954;2023-02-15T01:43:53;30.13;;;15.68;;
67930;SDS011;63902;52.000;5.954;2023-02-15T01:44:56;35.85;;;16.10;;
67930;SDS011;63902;52.000;5.954;2023-02-15T01:45:57;34.00;;;17.73;;
67930;SDS011;63902;52.000;5.954;2023-02-15T01:46:58;28.55;;;16.30;;
67930;SDS011;63902;52.000;5.954;2023-02-15T01:47:59;28.83;;;16.10;;
67930;SDS011;63902;52.000;5.954;2023-02-15T01:49:05;27.13;;;16.27;;
67930;SDS011;63902;52.000;5.954;2023-02-15T01:50:12;33.15;;;16.52;;
67930;SDS011;63902;52.000;5.954;2023-02-15T01:51:17;30.48;;;17.80;;
67930;SDS011;63902;52.000;5.954;2023-02-15T01:52:20;27.08;;;15.60;;
67930;SDS011;63902;52.000;5.954;2023-02-15T01:53:21;29.45;;;17.20;;
67930;SDS011;63902;52.000;5.954;2023-02-15T01:54:25;28.85;;;16.00;;
67930;SDS011;63902;52.000;5.954;2023-02-15T01:55:32;30.05;;;16.77;;
67930;SDS011;63902;52.000;5.954;2023-02-15T01:56:36;28.95;;;16.58;;
67930;SDS011;63902;52.000;5.954;2023-02-15T01:57:39;32.58;;;16.67;;
67930;SDS011;63902;52.000;5.954;2023-02-15T01:58:41;26.88;;;15.85;;
67930;SDS011;63902;52.000;5.954;2023-02-15T01:59:43;29.05;;;15.93;;
67930;SDS011;63902;52.000;5.954;2023-02-15T02:00:48;27.23;;;16.25;;
67930;SDS011;63902;52.000;5.954;2023-02-15T02:01:49;24.58;;;15.07;;
67930;SDS011;63902;52.000;5.954;2023-02-15T02:02:53;32.22;;;17.63;;
67930;SDS011;63902;52.000;5.954;2023-02-15T02:03:56;26.67;;;15.98;;
67930;SDS011;63902;52.000;5.954;2023-02-15T02:05:03;23.33;;;15.40;;
67930;SDS011;63902;52.000;5.954;2023-02-15T02:06:06;27.63;;;15.13;;
67930;SDS011;63902;52.000;5.954;2023-02-15T02:07:07;27.45;;;16.30;;
67930;SDS011;63902;52.000;5.954;2023-02-15T02:08:09;27.70;;;15.63;;
67930;SDS011;63902;52.000;5.954;2023-02-15T02:09:09;31.02;;;17.05;;
67930;SDS011;63902;52.000;5.954;2023-02-15T02:10:12;29.17;;;15.90;;
67930;SDS011;63902;52.000;5.954;2023-02-15T02:11:16;27.55;;;15.27;;
67930;SDS011;63902;52.000;5.954;2023-02-15T02:12:16;26.58;;;15.32;;
67930;SDS011;63902;52.000;5.954;2023-02-15T02:13:18;27.60;;;14.57;;
67930;SDS011;63902;52.000;5.954;2023-02-15T02:14:18;23.75;;;15.48;;
67930;SDS011;63902;52.000;5.954;2023-02-15T02:15:19;31.63;;;17.10;;
67930;SDS011;63902;52.000;5.954;2023-02-15T02:16:23;23.75;;;15.70;;
67930;SDS011;63902;52.000;5.954;2023-02-15T02:17:30;28.48;;;15.77;;
67930;SDS011;63902;52.000;5.954;2023-02-15T02:18:44;24.77;;;15.50;;
67930;SDS011;63902;52.000;5.954;2023-02-15T02:21:48;27.67;;;14.35;;
67930;SDS011;63902;52.000;5.954;2023-02-15T02:23:08;22.98;;;13.65;;
67930;SDS011;63902;52.000;5.954;2023-02-15T02:24:43;21.55;;;13.93;;
67930;SDS011;63902;52.000;5.954;2023-02-15T02:27:48;24.38;;;13.45;;
67930;SDS011;63902;52.000;5.954;2023-02-15T02:29:11;25.50;;;14.43;;
67930;SDS011;63902;52.000;5.954;2023-02-15T02:30:49;22.13;;;14.02;;
67930;SDS011;63902;52.000;5.954;2023-02-15T02:32:11;21.10;;;12.60;;
67930;SDS011;63902;52.000;5.954;2023-02-15T02:33:34;23.77;;;13.88;;
67930;SDS011;63902;52.000;5.954;2023-02-15T02:34:46;28.35;;;15.35;;
67930;SDS011;63902;52.000;5.954;2023-02-15T02:35:54;23.58;;;14.07;;
67930;SDS011;63902;52.000;5.954;2023-02-15T02:37:03;22.00;;;14.40;;
67930;SDS011;63902;52.000;5.954;2023-02-15T02:38:15;27.35;;;14.40;;
67930;SDS011;63902;52.000;5.954;2023-02-15T02:39:28;28.88;;;14.13;;
67930;SDS011;63902;52.000;5.954;2023-02-15T02:40:40;29.38;;;14.98;;
67930;SDS011;63902;52.000;5.954;2023-02-15T02:41:54;22.67;;;14.38;;
67930;SDS011;63902;52.000;5.954;2023-02-15T02:42:59;27.50;;;14.80;;
67930;SDS011;63902;52.000;5.954;2023-02-15T02:44:07;27.38;;;15.43;;
67930;SDS011;63902;52.000;5.954;2023-02-15T02:46:20;22.42;;;14.15;;
67930;SDS011;63902;52.000;5.954;2023-02-15T02:47:26;39.67;;;15.30;;
67930;SDS011;63902;52.000;5.954;2023-02-15T02:48:34;23.95;;;15.07;;
67930;SDS011;63902;52.000;5.954;2023-02-15T02:49:36;27.48;;;15.65;;
67930;SDS011;63902;52.000;5.954;2023-02-15T02:50:38;33.85;;;15.45;;
67930;SDS011;63902;52.000;5.954;2023-02-15T02:51:40;32.72;;;15.77;;
67930;SDS011;63902;52.000;5.954;2023-02-15T02:52:41;26.58;;;15.52;;
67930;SDS011;63902;52.000;5.954;2023-02-15T02:53:42;24.80;;;15.30;;
67930;SDS011;63902;52.000;5.954;2023-02-15T02:54:43;26.33;;;15.07;;
67930;SDS011;63902;52.000;5.954;2023-02-15T02:55:44;29.38;;;15.15;;
67930;SDS011;63902;52.000;5.954;2023-02-15T02:56:48;25.60;;;14.45;;
67930;SDS011;63902;52.000;5.954;2023-02-15T02:57:52;28.45;;;14.60;;
67930;SDS011;63902;52.000;5.954;2023-02-15T02:58:55;25.23;;;15.82;;
67930;SDS011;63902;52.000;5.954;2023-02-15T02:59:59;26.10;;;15.40;;
67930;SDS011;63902;52.000;5.954;2023-02-15T03:01:05;27.20;;;14.75;;
67930;SDS011;63902;52.000;5.954;2023-02-15T03:02:11;22.23;;;14.88;;
67930;SDS011;63902;52.000;5.954;2023-02-15T03:03:18;27.88;;;14.88;;
67930;SDS011;63902;52.000;5.954;2023-02-15T03:04:24;25.25;;;14.43;;
67930;SDS011;63902;52.000;5.954;2023-02-15T03:05:27;26.95;;;15.38;;
67930;SDS011;63902;52.000;5.954;2023-02-15T03:06:31;30.98;;;14.70;;
67930;SDS011;63902;52.000;5.954;2023-02-15T03:07:36;28.05;;;15.48;;
67930;SDS011;63902;52.000;5.954;2023-02-15T03:08:40;24.13;;;15.15;;
67930;SDS011;63902;52.000;5.954;2023-02-15T03:09:45;23.77;;;15.25;;
67930;SDS011;63902;52.000;5.954;2023-02-15T03:10:50;25.05;;;14.68;;
67930;SDS011;63902;52.000;5.954;2023-02-15T03:11:55;24.92;;;15.07;;
67930;SDS011;63902;52.000;5.954;2023-02-15T03:12:55;31.25;;;17.00;;
67930;SDS011;63902;52.000;5.954;2023-02-15T03:13:56;26.08;;;15.07;;
67930;SDS011;63902;52.000;5.954;2023-02-15T03:14:58;23.15;;;15.25;;
67930;SDS011;63902;52.000;5.954;2023-02-15T03:16:01;23.70;;;15.45;;
67930;SDS011;63902;52.000;5.954;2023-02-15T03:17:05;25.17;;;14.02;;
67930;SDS011;63902;52.000;5.954;2023-02-15T03:18:07;27.63;;;15.52;;
67930;SDS011;63902;52.000;5.954;2023-02-15T03:19:08;27.85;;;15.25;;
67930;SDS011;63902;52.000;5.954;2023-02-15T03:20:14;26.80;;;15.52;;
67930;SDS011;63902;52.000;5.954;2023-02-15T03:21:19;25.35;;;14.55;;
67930;SDS011;63902;52.000;5.954;2023-02-15T03:22:23;23.98;;;15.05;;
67930;SDS011;63902;52.000;5.954;2023-02-15T03:23:27;23.70;;;14.32;;
67930;SDS011;63902;52.000;5.954;2023-02-15T03:24:30;29.02;;;15.77;;
67930;SDS011;63902;52.000;5.954;2023-02-15T03:25:35;24.45;;;15.13;;
67930;SDS011;63902;52.000;5.954;2023-02-15T03:26:40;29.77;;;14.93;;
67930;SDS011;63902;52.000;5.954;2023-02-15T03:27:45;25.88;;;15.00;;
67930;SDS011;63902;52.000;5.954;2023-02-15T03:28:49;23.98;;;13.85;;
67930;SDS011;63902;52.000;5.954;2023-02-15T03:29:53;33.70;;;15.13;;
67930;SDS011;63902;52.000;5.954;2023-02-15T03:30:57;24.35;;;14.65;;
67930;SDS011;63902;52.000;5.954;2023-02-15T03:32:01;25.13;;;14.07;;
67930;SDS011;63902;52.000;5.954;2023-02-15T03:33:04;24.73;;;13.82;;
67930;SDS011;63902;52.000;5.954;2023-02-15T03:34:07;28.95;;;14.95;;
67930;SDS011;63902;52.000;5.954;2023-02-15T03:35:11;23.50;;;13.98;;
67930;SDS011;63902;52.000;5.954;2023-02-15T03:36:14;31.27;;;17.13;;
67930;SDS011;63902;52.000;5.954;2023-02-15T03:37:22;26.77;;;14.30;;
67930;SDS011;63902;52.000;5.954;2023-02-15T03:38:29;21.85;;;13.95;;
67930;SDS011;63902;52.000;5.954;2023-02-15T03:39:37;22.05;;;14.93;;
67930;SDS011;63902;52.000;5.954;2023-02-15T03:40:40;24.63;;;14.95;;
67930;SDS011;63902;52.000;5.954;2023-02-15T03:41:46;23.85;;;13.88;;
67930;SDS011;63902;52.000;5.954;2023-02-15T03:44:00;25.15;;;13.40;;
67930;SDS011;63902;52.000;5.954;2023-02-15T03:45:08;22.27;;;12.77;;
67930;SDS011;63902;52.000;5.954;2023-02-15T03:46:12;23.27;;;13.70;;
67930;SDS011;63902;52.000;5.954;2023-02-15T03:47:17;21.85;;;13.63;;
67930;SDS011;63902;52.000;5.954;2023-02-15T03:48:20;27.13;;;14.88;;
67930;SDS011;63902;52.000;5.954;2023-02-15T03:49:26;24.38;;;14.52;;
67930;SDS011;63902;52.000;5.954;2023-02-15T03:50:31;26.42;;;13.75;;
67930;SDS011;63902;52.000;5.954;2023-02-15T03:51:38;23.17;;;14.05;;
67930;SDS011;63902;52.000;5.954;2023-02-15T03:52:42;23.35;;;14.18;;
67930;SDS011;63902;52.000;5.954;2023-02-15T03:53:43;31.60;;;16.30;;
67930;SDS011;63902;52.000;5.954;2023-02-15T03:54:45;24.02;;;14.75;;
67930;SDS011;63902;52.000;5.954;2023-02-15T03:55:46;25.98;;;15.10;;
67930;SDS011;63902;52.000;5.954;2023-02-15T03:56:48;24.63;;;14.20;;
67930;SDS011;63902;52.000;5.954;2023-02-15T03:57:48;25.23;;;14.90;;
67930;SDS011;63902;52.000;5.954;2023-02-15T03:58:49;27.13;;;14.73;;
67930;SDS011;63902;52.000;5.954;2023-02-15T03:59:49;26.52;;;15.05;;
67930;SDS011;63902;52.000;5.954;2023-02-15T04:00:51;24.60;;;14.25;;
67930;SDS011;63902;52.000;5.954;2023-02-15T04:01:59;23.30;;;14.30;;
67930;SDS011;63902;52.000;5.954;2023-02-15T04:03:15;26.27;;;14.65;;
67930;SDS011;63902;52.000;5.954;2023-02-15T04:04:24;28.80;;;14.82;;
67930;SDS011;63902;52.000;5.954;2023-02-15T04:05:28;27.92;;;15.27;;
67930;SDS011;63902;52.000;5.954;2023-02-15T04:06:28;25.17;;;14.60;;
67930;SDS011;63902;52.000;5.954;2023-02-15T04:07:30;32.15;;;15.07;;
67930;SDS011;63902;52.000;5.954;2023-02-15T04:08:30;25.77;;;14.15;;
67930;SDS011;63902;52.000;5.954;2023-02-15T04:09:31;30.60;;;16.30;;
67930;SDS011;63902;52.000;5.954;2023-02-15T04:10:32;28.60;;;14.43;;
67930;SDS011;63902;52.000;5.954;2023-02-15T04:11:32;35.08;;;15.23;;
67930;SDS011;63902;52.000;5.954;2023-02-15T04:12:32;30.90;;;15.65;;
67930;SDS011;63902;52.000;5.954;2023-02-15T04:13:33;26.48;;;14.50;;
67930;SDS011;63902;52.000;5.954;2023-02-15T04:14:33;31.58;;;15.48;;
67930;SDS011;63902;52.000;5.954;2023-02-15T04:15:34;32.70;;;15.93;;
67930;SDS011;63902;52.000;5.954;2023-02-15T04:16:34;24.58;;;14.77;;
67930;SDS011;63902;52.000;5.954;2023-02-15T04:17:35;25.75;;;14.75;;
67930;SDS011;63902;52.000;5.954;2023-02-15T04:18:36;24.50;;;14.70;;
67930;SDS011;63902;52.000;5.954;2023-02-15T04:19:38;24.58;;;14.30;;
67930;SDS011;63902;52.000;5.954;2023-02-15T04:20:38;24.63;;;14.98;;
67930;SDS011;63902;52.000;5.954;2023-02-15T04:21:39;22.90;;;13.82;;
67930;SDS011;63902;52.000;5.954;2023-02-15T04:22:41;21.92;;;12.93;;
67930;SDS011;63902;52.000;5.954;2023-02-15T04:23:41;24.27;;;13.27;;
67930;SDS011;63902;52.000;5.954;2023-02-15T04:24:41;23.33;;;12.85;;
67930;SDS011;63902;52.000;5.954;2023-02-15T04:25:42;22.10;;;13.45;;
67930;SDS011;63902;52.000;5.954;2023-02-15T04:26:42;23.10;;;13.35;;
67930;SDS011;63902;52.000;5.954;2023-02-15T04:27:43;24.50;;;14.32;;
67930;SDS011;63902;52.000;5.954;2023-02-15T04:28:45;26.23;;;15.07;;
67930;SDS011;63902;52.000;5.954;2023-02-15T04:29:46;24.23;;;14.68;;
67930;SDS011;63902;52.000;5.954;2023-02-15T04:30:46;24.55;;;14.60;;
67930;SDS011;63902;52.000;5.954;2023-02-15T04:31:47;21.38;;;13.65;;
67930;SDS011;63902;52.000;5.954;2023-02-15T04:32:48;28.40;;;15.02;;
67930;SDS011;63902;52.000;5.954;2023-02-15T04:33:48;28.15;;;14.45;;
67930;SDS011;63902;52.000;5.954;2023-02-15T04:34:48;25.65;;;13.75;;
67930;SDS011;63902;52.000;5.954;2023-02-15T04:35:49;25.67;;;14.00;;
67930;SDS011;63902;52.000;5.954;2023-02-15T04:36:49;25.65;;;14.45;;
67930;SDS011;63902;52.000;5.954;2023-02-15T04:37:51;26.30;;;15.40;;
67930;SDS011;63902;52.000;5.954;2023-02-15T04:38:52;23.42;;;13.85;;
67930;SDS011;63902;52.000;5.954;2023-02-15T04:39:52;28.25;;;14.65;;
67930;SDS011;63902;52.000;5.954;2023-02-15T04:40:53;28.90;;;15.55;;
67930;SDS011;63902;52.000;5.954;2023-02-15T04:41:53;23.05;;;14.15;;
67930;SDS011;63902;52.000;5.954;2023-02-15T04:42:53;23.25;;;14.07;;
67930;SDS011;63902;52.000;5.954;2023-02-15T04:43:54;21.05;;;13.43;;
67930;SDS011;63902;52.000;5.954;2023-02-15T04:44:54;24.15;;;13.25;;
67930;SDS011;63902;52.000;5.954;2023-02-15T04:45:55;25.45;;;14.93;;
67930;SDS011;63902;52.000;5.954;2023-02-15T04:46:55;24.55;;;14.10;;
67930;SDS011;63902;52.000;5.954;2023-02-15T04:47:56;28.15;;;13.20;;
67930;SDS011;63902;52.000;5.954;2023-02-15T04:48:56;21.83;;;12.90;;
67930;SDS011;63902;52.000;5.954;2023-02-15T04:49:57;22.77;;;13.90;;
67930;SDS011;63902;52.000;5.954;2023-02-15T04:50:58;23.38;;;13.18;;
67930;SDS011;63902;52.000;5.954;2023-02-15T04:51:58;21.63;;;13.10;;
67930;SDS011;63902;52.000;5.954;2023-02-15T04:53:00;23.75;;;12.90;;
67930;SDS011;63902;52.000;5.954;2023-02-15T04:54:00;20.63;;;13.35;;
67930;SDS011;63902;52.000;5.954;2023-02-15T04:55:01;25.58;;;14.68;;
67930;SDS011;63902;52.000;5.954;2023-02-15T04:56:01;24.92;;;13.68;;
67930;SDS011;63902;52.000;5.954;2023-02-15T04:57:02;24.60;;;14.35;;
67930;SDS011;63902;52.000;5.954;2023-02-15T04:58:03;24.63;;;14.70;;
67930;SDS011;63902;52.000;5.954;2023-02-15T04:59:03;24.23;;;14.60;;
67930;SDS011;63902;52.000;5.954;2023-02-15T05:00:04;27.63;;;14.43;;
67930;SDS011;63902;52.000;5.954;2023-02-15T05:01:06;24.55;;;13.98;;
67930;SDS011;63902;52.000;5.954;2023-02-15T05:02:06;27.75;;;14.18;;
67930;SDS011;63902;52.000;5.954;2023-02-15T05:03:07;19.83;;;13.18;;
67930;SDS011;63902;52.000;5.954;2023-02-15T05:04:07;21.58;;;13.63;;
67930;SDS011;63902;52.000;5.954;2023-02-15T05:05:08;32.47;;;14.48;;
67930;SDS011;63902;52.000;5.954;2023-02-15T05:06:08;24.63;;;12.93;;
67930;SDS011;63902;52.000;5.954;2023-02-15T05:07:09;21.30;;;12.88;;
67930;SDS011;63902;52.000;5.954;2023-02-15T05:08:11;27.00;;;13.88;;
67930;SDS011;63902;52.000;5.954;2023-02-15T05:09:11;29.90;;;14.68;;
67930;SDS011;63902;52.000;5.954;2023-02-15T05:10:12;23.25;;;13.10;;
67930;SDS011;63902;52.000;5.954;2023-02-15T05:11:12;22.77;;;14.02;;
67930;SDS011;63902;52.000;5.954;2023-02-15T05:12:13;21.90;;;13.88;;
67930;SDS011;63902;52.000;5.954;2023-02-15T05:13:13;21.75;;;12.82;;
67930;SDS011;63902;52.000;5.954;2023-02-15T05:14:14;26.92;;;13.55;;
67930;SDS011;63902;52.000;5.954;2023-02-15T05:15:14;23.33;;;12.63;;
67930;SDS011;63902;52.000;5.954;2023-02-15T05:16:15;29.15;;;13.95;;
67930;SDS011;63902;52.000;5.954;2023-02-15T05:17:15;18.75;;;11.95;;
67930;SDS011;63902;52.000;5.954;2023-02-15T05:18:16;24.77;;;13.18;;
67930;SDS011;63902;52.000;5.954;2023-02-15T05:19:17;21.00;;;12.80;;
67930;SDS011;63902;52.000;5.954;2023-02-15T05:20:17;22.05;;;13.40;;
67930;SDS011;63902;52.000;5.954;2023-02-15T05:21:17;27.95;;;13.65;;
67930;SDS011;63902;52.000;5.954;2023-02-15T05:22:18;24.92;;;12.82;;
67930;SDS011;63902;52.000;5.954;2023-02-15T05:23:20;23.48;;;12.20;;
67930;SDS011;63902;52.000;5.954;2023-02-15T05:24:20;23.00;;;13.43;;
67930;SDS011;63902;52.000;5.954;2023-02-15T05:25:21;26.85;;;13.95;;
67930;SDS011;63902;52.000;5.954;2023-02-15T05:26:22;21.88;;;13.52;;
67930;SDS011;63902;52.000;5.954;2023-02-15T05:27:23;25.90;;;13.07;;
67930;SDS011;63902;52.000;5.954;2023-02-15T05:28:25;23.83;;;14.23;;
67930;SDS011;63902;52.000;5.954;2023-02-15T05:29:27;24.63;;;13.52;;
67930;SDS011;63902;52.000;5.954;2023-02-15T05:30:27;24.25;;;14.45;;
67930;SDS011;63902;52.000;5.954;2023-02-15T05:31:28;30.13;;;14.50;;
67930;SDS011;63902;52.000;5.954;2023-02-15T05:32:28;29.08;;;15.55;;
67930;SDS011;63902;52.000;5.954;2023-02-15T05:33:29;25.98;;;13.63;;
67930;SDS011;63902;52.000;5.954;2023-02-15T05:34:29;26.15;;;14.48;;
67930;SDS011;63902;52.000;5.954;2023-02-15T05:35:30;21.95;;;13.25;;
67930;SDS011;63902;52.000;5.954;2023-02-15T05:36:31;21.63;;;12.45;;
67930;SDS011;63902;52.000;5.954;2023-02-15T05:37:32;26.90;;;14.10;;
67930;SDS011;63902;52.000;5.954;2023-02-15T05:38:34;22.30;;;14.40;;
67930;SDS011;63902;52.000;5.954;2023-02-15T05:39:34;22.35;;;13.68;;
67930;SDS011;63902;52.000;5.954;2023-02-15T05:40:35;22.27;;;13.75;;
67930;SDS011;63902;52.000;5.954;2023-02-15T05:41:36;26.77;;;14.82;;
67930;SDS011;63902;52.000;5.954;2023-02-15T05:42:36;27.08;;;13.43;;
67930;SDS011;63902;52.000;5.954;2023-02-15T05:43:37;24.75;;;13.75;;
67930;SDS011;63902;52.000;5.954;2023-02-15T05:44:38;22.30;;;13.50;;
67930;SDS011;63902;52.000;5.954;2023-02-15T05:45:39;26.50;;;13.40;;
67930;SDS011;63902;52.000;5.954;2023-02-15T05:46:39;24.95;;;14.30;;
67930;SDS011;63902;52.000;5.954;2023-02-15T05:47:40;28.42;;;13.70;;
67930;SDS011;63902;52.000;5.954;2023-02-15T05:48:40;21.55;;;13.70;;
67930;SDS011;63902;52.000;5.954;2023-02-15T05:49:41;20.92;;;13.10;;
67930;SDS011;63902;52.000;5.954;2023-02-15T05:50:41;23.60;;;13.60;;
67930;SDS011;63902;52.000;5.954;2023-02-15T05:51:42;22.38;;;13.35;;
67930;SDS011;63902;52.000;5.954;2023-02-15T05:52:42;25.70;;;13.70;;
67930;SDS011;63902;52.000;5.954;2023-02-15T05:53:44;24.98;;;13.50;;
67930;SDS011;63902;52.000;5.954;2023-02-15T05:54:45;29.65;;;14.02;;
67930;SDS011;63902;52.000;5.954;2023-02-15T05:55:45;21.35;;;13.40;;
67930;SDS011;63902;52.000;5.954;2023-02-15T05:56:46;20.48;;;12.75;;
67930;SDS011;63902;52.000;5.954;2023-02-15T05:57:46;26.23;;;14.20;;
67930;SDS011;63902;52.000;5.954;2023-02-15T05:58:48;20.67;;;12.20;;
67930;SDS011;63902;52.000;5.954;2023-02-15T05:59:48;24.92;;;14.52;;
67930;SDS011;63902;52.000;5.954;2023-02-15T06:00:49;21.30;;;13.90;;
67930;SDS011;63902;52.000;5.954;2023-02-15T06:01:49;23.17;;;13.52;;
67930;SDS011;63902;52.000;5.954;2023-02-15T06:02:50;24.08;;;13.25;;
67930;SDS011;63902;52.000;5.954;2023-02-15T06:03:50;22.83;;;13.55;;
67930;SDS011;63902;52.000;5.954;2023-02-15T06:04:51;25.50;;;14.85;;
67930;SDS011;63902;52.000;5.954;2023-02-15T06:05:51;24.58;;;13.50;;
67930;SDS011;63902;52.000;5.954;2023-02-15T06:06:52;23.55;;;12.63;;
67930;SDS011;63902;52.000;5.954;2023-02-15T06:07:53;23.83;;;13.23;;
67930;SDS011;63902;52.000;5.954;2023-02-15T06:08:54;25.65;;;14.10;;
67930;SDS011;63902;52.000;5.954;2023-02-15T06:09:55;19.42;;;12.95;;
67930;SDS011;63902;52.000;5.954;2023-02-15T06:10:55;30.63;;;15.00;;